| time (UTC) | temp F | wind direction | speed MPH | gust MPH | rain 1hr in | rain 24hr in | rain mn in | humidity % | barometer mb |
| 20260505070034 | 41 | 20 | 3.0 | 7.0 | 0.02 | 0.09 | 0.03 | 91 | 1013.5 |
| 20260505065514 | 41 | 20 | 4.0 | 7.0 | 0.03 | 0.09 | 0.03 | 91 | 1013.5 |
| 20260505065016 | 41 | 20 | 3.0 | 7.0 | 0.03 | 0.09 | 0.03 | 91 | 1013.6 |
| 20260505064533 | 41 | 20 | 3.0 | 8.0 | 0.03 | 0.09 | 0.03 | 91 | 1013.5 |
| 20260505064019 | 41 | 20 | 5.0 | 8.0 | 0.02 | 0.08 | 0.02 | 90 | 1013.4 |
| 20260505063515 | 42 | 20 | 2.0 | 7.0 | 0.02 | 0.08 | 0.02 | 91 | 1013.4 |
| 20260505063030 | 42 | 20 | 2.0 | 9.0 | 0.02 | 0.08 | 0.02 | 90 | 1013.5 |
| 20260505062516 | 42 | 20 | 6.0 | 9.0 | 0.02 | 0.08 | 0.02 | 90 | 1013.0 |
| 20260505062015 | 42 | 9 | 5.0 | 8.0 | 0.02 | 0.08 | 0.02 | 90 | 1013.0 |
| 20260505061533 | 42 | 9 | 1.0 | 5.0 | 0.01 | 0.07 | 0.01 | 90 | 1013.5 |
| 20260505061017 | 42 | 9 | 2.0 | 5.0 | 0.01 | 0.07 | 0.01 | 90 | 1013.7 |
| 20260505060515 | 42 | 9 | 3.0 | 5.0 | 0.01 | 0.07 | 0.01 | 89 | 1013.5 |
| 20260505060033 | 42 | 9 | 2.0 | 6.0 | 0.00 | 0.06 | 0.00 | 89 | 1013.5 |
| 20260505055514 | 42 | 338 | 2.0 | 6.0 | 0.00 | 0.06 | 0.06 | 89 | 1013.5 |
| 20260505055014 | 42 | 338 | 3.0 | 6.0 | 0.00 | 0.06 | 0.06 | 88 | 1013.8 |
| 20260505054547 | 42 | 324 | 2.0 | 6.0 | 0.00 | 0.06 | 0.06 | 88 | 1013.8 |
| 20260505054014 | 42 | 324 | 3.0 | 8.0 | 0.00 | 0.06 | 0.06 | 88 | 1013.7 |
| 20260505053513 | 42 | 332 | 5.0 | 8.0 | 0.00 | 0.06 | 0.06 | 88 | 1013.7 |
| 20260505053050 | 42 | 317 | 4.0 | 10.0 | 0.00 | 0.06 | 0.06 | 87 | 1013.9 |
| 20260505052518 | 42 | 309 | 6.0 | 10.0 | 0.00 | 0.06 | 0.06 | 87 | 1013.8 |
| 20260505052014 | 42 | 307 | 5.0 | 9.0 | 0.00 | 0.06 | 0.06 | 87 | 1013.8 |
| 20260505051538 | 42 | 306 | 5.0 | 9.0 | 0.00 | 0.06 | 0.06 | 86 | 1013.7 |
| 20260505051016 | 42 | 319 | 5.0 | 9.0 | 0.00 | 0.06 | 0.06 | 86 | 1013.7 |
| 20260505050516 | 42 | 321 | 5.0 | 9.0 | 0.00 | 0.06 | 0.06 | 86 | 1013.7 |
| 20260505041530 | 42 | 347 | 3.0 | 5.0 | 0.01 | 0.06 | 0.06 | 85 | 1013.1 |
| 20260505041015 | 42 | 347 | 3.0 | 8.0 | 0.02 | 0.06 | 0.06 | 85 | 1012.9 |
| 20260505040514 | 42 | 347 | 3.0 | 8.0 | 0.03 | 0.06 | 0.06 | 84 | 1013.0 |
| 20260505040036 | 42 | 24 | 5.0 | 10.0 | 0.03 | 0.06 | 0.06 | 83 | 1013.0 |
| 20260505035513 | 43 | 24 | 5.0 | 10.0 | 0.03 | 0.06 | 0.06 | 82 | 1013.0 |
| 20260505035014 | 42 | 20 | 7.0 | 9.0 | 0.04 | 0.06 | 0.06 | 83 | 1012.8 |
| 20260505034532 | 42 | 20 | 5.0 | 7.0 | 0.04 | 0.06 | 0.06 | 83 | 1013.3 |
| 20260505034016 | 42 | 20 | 4.0 | 9.0 | 0.04 | 0.06 | 0.06 | 83 | 1013.4 |
| 20260505033513 | 43 | 20 | 5.0 | 10.0 | 0.04 | 0.06 | 0.06 | 83 | 1013.3 |
| 20260505033040 | 43 | 10 | 5.0 | 10.0 | 0.04 | 0.06 | 0.06 | 82 | 1013.0 |
| 20260505032514 | 42 | 14 | 5.0 | 11.0 | 0.04 | 0.06 | 0.06 | 82 | 1013.1 |
| 20260505032018 | 43 | 325 | 8.0 | 11.0 | 0.03 | 0.05 | 0.05 | 82 | 1013.1 |
| 20260505031530 | 43 | 346 | 8.0 | 11.0 | 0.03 | 0.05 | 0.05 | 81 | 1013.1 |
| 20260505031018 | 43 | 324 | 7.0 | 10.0 | 0.02 | 0.04 | 0.04 | 82 | 1013.2 |
| 20260505030517 | 43 | 327 | 5.0 | 8.0 | 0.01 | 0.03 | 0.03 | 81 | 1013.2 |
| 20260505030032 | 43 | 9 | 5.0 | 8.0 | 0.01 | 0.03 | 0.03 | 81 | 1013.2 |
| 20260505025517 | 43 | 9 | 5.0 | 8.0 | 0.01 | 0.03 | 0.03 | 80 | 1013.1 |
| 20260505025014 | 43 | 9 | 4.0 | 10.0 | 0.00 | 0.02 | 0.02 | 79 | 1013.1 |
| 20260505024531 | 43 | 9 | 5.0 | 10.0 | 0.00 | 0.02 | 0.02 | 79 | 1013.1 |
| 20260505024013 | 43 | 33 | 3.0 | 5.0 | 0.00 | 0.02 | 0.02 | 81 | 1013.1 |
| 20260505023516 | 43 | 33 | 0.0 | 3.0 | 0.01 | 0.02 | 0.02 | 80 | 1013.0 |
| 20260505023032 | 43 | 0 | 0.0 | 3.0 | 0.02 | 0.02 | 0.02 | 79 | 1012.8 |
| 20260505022513 | 43 | 33 | 1.0 | 6.0 | 0.02 | 0.02 | 0.02 | 79 | 1012.4 |
| 20260505022017 | 43 | 33 | 3.0 | 8.0 | 0.02 | 0.02 | 0.02 | 78 | 1012.5 |
| 20260505021533 | 44 | 30 | 4.0 | 8.0 | 0.02 | 0.02 | 0.02 | 77 | 1012.6 |
| 20260505021014 | 44 | 18 | 5.0 | 10.0 | 0.02 | 0.02 | 0.02 | 76 | 1012.7 |
| 20260505020515 | 44 | 5 | 5.0 | 10.0 | 0.02 | 0.02 | 0.02 | 75 | 1013.0 |
| 20260505020032 | 44 | 42 | 3.0 | 16.0 | 0.02 | 0.02 | 0.02 | 73 | 1012.9 |
| 20260505015516 | 45 | 42 | 6.0 | 23.0 | 0.02 | 0.02 | 0.02 | 70 | 1012.6 |
| 20260505015017 | 45 | 24 | 11.0 | 23.0 | 0.02 | 0.02 | 0.02 | 68 | 1012.7 |
| 20260505014531 | 45 | 16 | 11.0 | 23.0 | 0.02 | 0.02 | 0.02 | 67 | 1012.7 |
| 20260505014015 | 46 | 327 | 4.0 | 21.0 | 0.02 | 0.02 | 0.02 | 66 | 1012.4 |
| 20260505013514 | 46 | 309 | 7.0 | 21.0 | 0.01 | 0.01 | 0.01 | 64 | 1012.5 |
| 20260505013030 | 46 | 304 | 7.0 | 29.0 | 0.00 | 0.00 | 0.00 | 66 | 1012.7 |
| 20260505012513 | 47 | 280 | 9.0 | 29.0 | 0.00 | 0.00 | 0.00 | 63 | 1012.8 |
| 20260505012015 | 48 | 311 | 15.0 | 29.0 | 0.00 | 0.00 | 0.00 | 57 | 1012.5 |
| 20260505011536 | 49 | 282 | 8.0 | 11.0 | 0.00 | 0.00 | 0.00 | 53 | 1012.5 |
| 20260505011014 | 49 | 284 | 6.0 | 14.0 | 0.00 | 0.00 | 0.00 | 52 | 1012.0 |
| 20260505010514 | 49 | 287 | 7.0 | 14.0 | 0.00 | 0.00 | 0.00 | 52 | 1011.8 |
| 20260505010030 | 49 | 293 | 10.0 | 16.0 | 0.00 | 0.00 | 0.00 | 52 | 1011.8 |
| 20260505005514 | 49 | 302 | 9.0 | 18.0 | 0.00 | 0.00 | 0.00 | 52 | 1011.5 |
| 20260505005014 | 49 | 302 | 11.0 | 18.0 | 0.00 | 0.00 | 0.00 | 51 | 1011.4 |
| 20260505004534 | 49 | 302 | 10.0 | 18.0 | 0.00 | 0.00 | 0.00 | 51 | 1011.3 |
| 20260505004012 | 50 | 321 | 10.0 | 19.0 | 0.00 | 0.00 | 0.00 | 50 | 1011.2 |
| 20260505003514 | 51 | 355 | 11.0 | 20.0 | 0.00 | 0.00 | 0.00 | 48 | 1011.3 |
| 20260505003031 | 51 | 329 | 13.0 | 20.0 | 0.00 | 0.00 | 0.00 | 45 | 1011.3 |
| 20260505002514 | 51 | 319 | 10.0 | 20.0 | 0.00 | 0.00 | 0.00 | 45 | 1011.2 |
| 20260505002013 | 52 | 5 | 14.0 | 20.0 | 0.00 | 0.00 | 0.00 | 44 | 1011.0 |
| 20260505001531 | 52 | 12 | 12.0 | 20.0 | 0.00 | 0.00 | 0.00 | 43 | 1011.1 |
| 20260505001014 | 52 | 350 | 14.0 | 24.0 | 0.00 | 0.00 | 0.00 | 44 | 1011.2 |
| 20260505000514 | 52 | 347 | 14.0 | 24.0 | 0.00 | 0.00 | 0.00 | 45 | 1011.0 |
| 20260505000033 | 53 | 15 | 14.0 | 24.0 | 0.00 | 0.00 | 0.00 | 41 | 1011.1 |
| 20260504235514 | 53 | 5 | 13.0 | 18.0 | 0.00 | 0.00 | 0.00 | 43 | 1011.1 |
| 20260504235014 | 53 | 360 | 8.0 | 14.0 | 0.00 | 0.00 | 0.00 | 43 | 1011.1 |
| 20260504234532 | 53 | 360 | 7.0 | 16.0 | 0.00 | 0.00 | 0.00 | 42 | 1011.0 |
| 20260504234013 | 53 | 355 | 6.0 | 17.0 | 0.00 | 0.00 | 0.00 | 41 | 1011.3 |
| 20260504233513 | 53 | 360 | 12.0 | 17.0 | 0.00 | 0.00 | 0.00 | 41 | 1011.3 |
| 20260504233030 | 54 | 21 | 10.0 | 13.0 | 0.00 | 0.00 | 0.00 | 40 | 1011.3 |
| 20260504232513 | 54 | 321 | 6.0 | 11.0 | 0.00 | 0.00 | 0.00 | 39 | 1011.2 |
| 20260504232015 | 54 | 308 | 3.0 | 9.0 | 0.00 | 0.00 | 0.00 | 42 | 1011.3 |
| 20260504231529 | 53 | 105 | 2.0 | 9.0 | 0.00 | 0.00 | 0.00 | 41 | 1011.0 |
| 20260504231014 | 53 | 111 | 3.0 | 16.0 | 0.00 | 0.00 | 0.00 | 43 | 1010.9 |
| 20260504230515 | 52 | 182 | 3.0 | 17.0 | 0.00 | 0.00 | 0.00 | 42 | 1011.0 |
| 20260504230032 | 52 | 40 | 6.0 | 25.0 | 0.00 | 0.00 | 0.00 | 45 | 1011.4 |
| 20260504225516 | 52 | 346 | 6.0 | 25.0 | 0.00 | 0.00 | 0.00 | 42 | 1011.6 |
| 20260504225015 | 53 | 60 | 7.0 | 28.0 | 0.00 | 0.00 | 0.00 | 41 | 1011.4 |
| 20260504224530 | 54 | 186 | 17.0 | 28.0 | 0.00 | 0.00 | 0.00 | 37 | 1010.7 |
| 20260504224013 | 57 | 128 | 0.0 | 7.0 | 0.00 | 0.00 | 0.00 | 30 | 1010.7 |
| 20260504223515 | 57 | 92 | 1.0 | 6.0 | 0.00 | 0.00 | 0.00 | 29 | 1010.4 |
| 20260504223030 | 57 | 92 | 3.0 | 11.0 | 0.00 | 0.00 | 0.00 | 28 | 1010.4 |
| 20260504222515 | 57 | 90 | 4.0 | 13.0 | 0.00 | 0.00 | 0.00 | 28 | 1010.5 |
| 20260504222014 | 58 | 108 | 6.0 | 13.0 | 0.00 | 0.00 | 0.00 | 27 | 1010.4 |
| 20260504221536 | 59 | 125 | 8.0 | 13.0 | 0.00 | 0.00 | 0.00 | 25 | 1010.4 |
| 20260504221015 | 59 | 86 | 4.0 | 9.0 | 0.00 | 0.00 | 0.00 | 25 | 1010.3 |
| 20260504220514 | 59 | 86 | 5.0 | 15.0 | 0.00 | 0.00 | 0.00 | 24 | 1010.1 |
| 20260504220030 | 60 | 38 | 7.0 | 19.0 | 0.00 | 0.00 | 0.00 | 24 | 1009.9 |
| 20260504215514 | 60 | 36 | 12.0 | 19.0 | 0.00 | 0.00 | 0.00 | 20 | 1009.9 |
| 20260504215012 | 61 | 29 | 7.0 | 19.0 | 0.00 | 0.00 | 0.00 | 24 | 1010.0 |
| 20260504214539 | 61 | 11 | 10.0 | 19.0 | 0.00 | 0.00 | 0.00 | 22 | 1009.9 |
| 20260504214017 | 62 | 57 | 11.0 | 21.0 | 0.00 | 0.00 | 0.00 | 24 | 1009.9 |
| 20260504213516 | 61 | 40 | 12.0 | 21.0 | 0.00 | 0.00 | 0.00 | 24 | 1010.0 |
| 20260504213029 | 61 | 5 | 12.0 | 17.0 | 0.00 | 0.00 | 0.00 | 22 | 1010.1 |
| 20260504212515 | 61 | 10 | 11.0 | 19.0 | 0.00 | 0.00 | 0.00 | 23 | 1010.2 |
| 20260504212014 | 61 | 94 | 8.0 | 19.0 | 0.00 | 0.00 | 0.00 | 23 | 1010.2 |
| 20260504211532 | 62 | 44 | 8.0 | 13.0 | 0.00 | 0.00 | 0.00 | 21 | 1010.2 |
| 20260504211012 | 62 | 37 | 7.0 | 14.0 | 0.00 | 0.00 | 0.00 | 20 | 1010.2 |
| 20260504210514 | 61 | 33 | 9.0 | 14.0 | 0.00 | 0.00 | 0.00 | 21 | 1010.3 |
| 20260504210034 | 61 | 10 | 5.0 | 10.0 | 0.00 | 0.00 | 0.00 | 22 | 1010.1 |
| 20260504205514 | 61 | 346 | 6.0 | 11.0 | 0.00 | 0.00 | 0.00 | 21 | 1010.2 |
| 20260504205015 | 62 | 340 | 6.0 | 11.0 | 0.00 | 0.00 | 0.00 | 19 | 1010.2 |
| 20260504204530 | 62 | 33 | 5.0 | 11.0 | 0.00 | 0.00 | 0.00 | 19 | 1010.2 |
| 20260504204015 | 62 | 65 | 4.0 | 11.0 | 0.00 | 0.00 | 0.00 | 18 | 1010.3 |
| 20260504203512 | 61 | 360 | 1.0 | 9.0 | 0.00 | 0.00 | 0.00 | 22 | 1010.2 |
| 20260504203032 | 62 | 171 | 5.0 | 9.0 | 0.00 | 0.00 | 0.00 | 21 | 1010.2 |
| 20260504202514 | 62 | 22 | 0.0 | 8.0 | 0.00 | 0.00 | 0.00 | 18 | 1010.4 |
| 20260504202014 | 61 | 36 | 4.0 | 7.0 | 0.00 | 0.00 | 0.00 | 20 | 1010.3 |
| 20260504201530 | 61 | 355 | 3.0 | 6.0 | 0.00 | 0.00 | 0.00 | 19 | 1010.3 |
| 20260504201016 | 61 | 346 | 3.0 | 6.0 | 0.00 | 0.00 | 0.00 | 20 | 1010.3 |
| 20260504200514 | 61 | 307 | 2.0 | 9.0 | 0.00 | 0.00 | 0.00 | 19 | 1010.5 |
| 20260504200040 | 61 | 61 | 1.0 | 9.0 | 0.00 | 0.00 | 0.00 | 19 | 1010.4 |
| 20260504195516 | 61 | 96 | 6.0 | 9.0 | 0.00 | 0.00 | 0.00 | 19 | 1010.6 |
| 20260504195014 | 61 | 134 | 1.0 | 8.0 | 0.00 | 0.00 | 0.00 | 21 | 1010.6 |
| 20260504194536 | 61 | 207 | 3.0 | 8.0 | 0.00 | 0.00 | 0.00 | 19 | 1010.4 |
| 20260504194014 | 62 | 140 | 3.0 | 8.0 | 0.00 | 0.00 | 0.00 | 20 | 1010.6 |
| 20260504193515 | 62 | 84 | 4.0 | 8.0 | 0.00 | 0.00 | 0.00 | 19 | 1010.6 |
| 20260504193029 | 62 | 246 | 2.0 | 10.0 | 0.00 | 0.00 | 0.00 | 17 | 1010.6 |
| 20260504192515 | 63 | 239 | 4.0 | 10.0 | 0.00 | 0.00 | 0.00 | 19 | 1010.7 |
| 20260504192014 | 62 | 219 | 4.0 | 9.0 | 0.00 | 0.00 | 0.00 | 20 | 1010.6 |
| 20260504191546 | 61 | 235 | 3.0 | 9.0 | 0.00 | 0.00 | 0.00 | 20 | 1010.7 |
| 20260504191015 | 60 | 47 | 3.0 | 13.0 | 0.00 | 0.00 | 0.00 | 20 | 1010.8 |
| 20260504190513 | 61 | 69 | 7.0 | 13.0 | 0.00 | 0.00 | 0.00 | 19 | 1010.8 |
| 20260504190032 | 63 | 68 | 5.0 | 13.0 | 0.00 | 0.00 | 0.00 | 20 | 1010.8 |
| 20260504185513 | 63 | 121 | 2.0 | 11.0 | 0.00 | 0.00 | 0.00 | 20 | 1011.0 |
| 20260504185012 | 62 | 66 | 1.0 | 16.0 | 0.00 | 0.00 | 0.00 | 21 | 1011.0 |
| 20260504184533 | 60 | 71 | 5.0 | 21.0 | 0.00 | 0.00 | 0.00 | 21 | 1011.2 |
| 20260504184038 | 60 | 82 | 9.0 | 21.0 | 0.00 | 0.00 | 0.00 | 20 | 1011.4 |
| 20260504183515 | 58 | 303 | 9.0 | 16.0 | 0.00 | 0.00 | 0.00 | 23 | 1011.6 |
| 20260504183041 | 57 | 5 | 4.0 | 22.0 | 0.00 | 0.00 | 0.00 | 20 | 1011.7 |
| 20260504182514 | 57 | 347 | 8.0 | 22.0 | 0.00 | 0.00 | 0.00 | 23 | 1011.8 |
| 20260504182013 | 57 | 347 | 14.0 | 22.0 | 0.00 | 0.00 | 0.00 | 25 | 1011.5 |
| 20260504181531 | 59 | 304 | 13.0 | 20.0 | 0.00 | 0.00 | 0.00 | 22 | 1011.6 |
| 20260504181013 | 60 | 274 | 7.0 | 15.0 | 0.00 | 0.00 | 0.00 | 21 | 1011.6 |
| 20260504180516 | 61 | 284 | 5.0 | 14.0 | 0.00 | 0.00 | 0.00 | 21 | 1011.7 |
| 20260504180033 | 62 | 222 | 6.0 | 14.0 | 0.00 | 0.00 | 0.00 | 19 | 1011.6 |
| 20260504175513 | 62 | 219 | 8.0 | 14.0 | 0.00 | 0.00 | 0.00 | 20 | 1011.6 |
| 20260504175014 | 62 | 226 | 2.0 | 11.0 | 0.00 | 0.00 | 0.00 | 20 | 1011.8 |
| 20260504174532 | 63 | 148 | 3.0 | 15.0 | 0.00 | 0.00 | 0.00 | 21 | 1011.8 |
| 20260504174013 | 63 | 224 | 6.0 | 15.0 | 0.00 | 0.00 | 0.00 | 19 | 1012.1 |
| 20260504173513 | 62 | 208 | 2.0 | 18.0 | 0.00 | 0.00 | 0.00 | 22 | 1012.1 |
| 20260504173030 | 62 | 305 | 4.0 | 18.0 | 0.00 | 0.00 | 0.00 | 23 | 1012.3 |
| 20260504172512 | 61 | 276 | 9.0 | 18.0 | 0.00 | 0.00 | 0.00 | 22 | 1012.4 |
| 20260504172015 | 60 | 223 | 7.0 | 15.0 | 0.00 | 0.00 | 0.00 | 26 | 1012.4 |
| 20260504171532 | 60 | 229 | 10.0 | 15.0 | 0.00 | 0.00 | 0.00 | 26 | 1012.5 |
| 20260504171017 | 60 | 268 | 10.0 | 20.0 | 0.00 | 0.00 | 0.00 | 27 | 1012.5 |
| 20260504170517 | 59 | 252 | 11.0 | 20.0 | 0.00 | 0.00 | 0.00 | 27 | 1012.6 |
| 20260504151012 | 58 | 255 | 16.0 | 21.0 | 0.00 | 0.00 | 0.00 | 27 | 1012.9 |
| 20260504150516 | 58 | 240 | 15.0 | 21.0 | 0.00 | 0.00 | 0.00 | 27 | 1013.0 |
| 20260504141017 | 54 | 251 | 12.0 | 19.0 | 0.00 | 0.00 | 0.00 | 33 | 1012.7 |
| 20260504140512 | 53 | 246 | 14.0 | 19.0 | 0.00 | 0.00 | 0.00 | 32 | 1012.8 |
| 20260504130513 | 47 | 246 | 8.0 | 12.0 | 0.00 | 0.00 | 0.00 | 44 | 1012.8 |
| 20260504110513 | 42 | 244 | 5.0 | 8.0 | 0.00 | 0.00 | 0.00 | 51 | 1012.8 |
| 20260504100514 | 39 | 219 | 0.0 | 3.0 | 0.00 | 0.00 | 0.00 | 56 | 1013.2 |
| 20260504081530 | 39 | 219 | 3.0 | 5.0 | 0.00 | 0.00 | 0.00 | 63 | 1013.8 |
| 20260504081012 | 37 | 219 | 2.0 | 5.0 | 0.00 | 0.00 | 0.00 | 68 | 1013.7 |
| 20260504080512 | 35 | 206 | 2.0 | 4.0 | 0.00 | 0.00 | 0.00 | 73 | 1013.9 |